createdAt,value
2022-11-12T00:00:10.861Z,7.85
2022-11-12T00:02:36.961Z,7.78
2022-11-12T00:05:03.071Z,7.82
2022-11-12T00:07:29.187Z,7.68
2022-11-12T00:09:55.283Z,7.69
2022-11-12T00:12:21.363Z,7.55
2022-11-12T00:14:47.477Z,7.45
2022-11-12T00:17:13.564Z,7.39
2022-11-12T00:19:39.647Z,7.44
2022-11-12T00:22:05.754Z,7.44
2022-11-12T00:24:31.868Z,7.51
2022-11-12T00:26:57.970Z,7.62
2022-11-12T00:29:24.583Z,7.40
2022-11-12T00:31:50.671Z,7.54
2022-11-12T00:34:16.752Z,7.61
2022-11-12T00:36:42.871Z,7.52
2022-11-12T00:39:08.967Z,7.51
2022-11-12T00:41:35.050Z,7.57
2022-11-12T00:44:01.194Z,7.54
2022-11-12T00:46:27.281Z,7.55
2022-11-12T00:48:53.375Z,7.73
2022-11-12T00:51:19.480Z,7.93
2022-11-12T00:53:45.591Z,8.13
2022-11-12T00:56:11.683Z,8.21
2022-11-12T00:58:37.799Z,8.31
2022-11-12T01:01:03.914Z,8.44
2022-11-12T01:03:30.151Z,8.44
2022-11-12T01:05:56.317Z,8.51
2022-11-12T01:08:22.769Z,8.61
2022-11-12T01:10:49.245Z,8.58
2022-11-12T01:13:15.354Z,8.49
2022-11-12T01:15:41.458Z,8.50
2022-11-12T01:18:07.553Z,8.47
2022-11-12T01:20:33.669Z,8.40
2022-11-12T01:22:59.778Z,8.43
2022-11-12T01:25:25.888Z,8.37
2022-11-12T01:27:52.014Z,8.33
2022-11-12T01:30:18.104Z,8.18
2022-11-12T01:32:45.856Z,8.31
2022-11-12T01:35:11.956Z,8.25
2022-11-12T01:37:38.042Z,8.24
2022-11-12T01:40:04.141Z,8.19
2022-11-12T01:42:30.253Z,8.21
2022-11-12T01:44:56.345Z,8.11
2022-11-12T01:47:22.438Z,7.93
2022-11-12T01:49:53.184Z,7.98
2022-11-12T01:52:21.346Z,7.88
2022-11-12T01:54:47.435Z,7.80
2022-11-12T01:57:13.554Z,7.72
2022-11-12T01:59:39.641Z,7.65
2022-11-12T02:02:05.735Z,7.68
2022-11-12T02:04:32.176Z,7.60
2022-11-12T02:06:58.316Z,7.55
2022-11-12T02:09:24.447Z,7.49
2022-11-12T02:11:50.573Z,7.35
2022-11-12T02:14:16.668Z,7.39
2022-11-12T02:16:42.756Z,7.41
2022-11-12T02:19:08.860Z,7.45
2022-11-12T02:21:34.954Z,7.53
2022-11-12T02:24:01.049Z,7.52
2022-11-12T02:26:27.151Z,7.43
2022-11-12T02:28:53.248Z,7.43
2022-11-12T02:31:19.332Z,7.37
2022-11-12T02:33:45.944Z,7.45
2022-11-12T02:36:12.044Z,7.35
2022-11-12T02:38:38.131Z,7.37
2022-11-12T02:41:04.241Z,7.41
2022-11-12T02:43:30.336Z,7.51
2022-11-12T02:45:56.420Z,7.37
2022-11-12T02:48:22.532Z,7.22
2022-11-12T02:50:48.638Z,7.10
2022-11-12T02:53:14.735Z,7.10
2022-11-12T02:55:40.846Z,7.11
2022-11-12T02:58:06.942Z,7.01
2022-11-12T03:00:33.044Z,7.04
2022-11-12T03:02:59.367Z,7.23
2022-11-12T03:05:25.567Z,7.20
2022-11-12T03:07:51.732Z,7.16
2022-11-12T03:10:17.850Z,7.12
2022-11-12T03:12:43.936Z,6.94
2022-11-12T03:15:10.025Z,6.88
2022-11-12T03:17:36.151Z,6.80
2022-11-12T03:20:02.266Z,6.89
2022-11-12T03:22:28.357Z,6.79
2022-11-12T03:24:54.487Z,6.77
2022-11-12T03:27:20.571Z,6.73
2022-11-12T03:29:46.660Z,6.70
2022-11-12T03:32:12.769Z,6.80
2022-11-12T03:34:38.862Z,6.70
2022-11-12T03:37:04.944Z,6.59
2022-11-12T03:39:31.074Z,6.54
2022-11-12T03:41:57.170Z,6.63
2022-11-12T03:44:23.254Z,6.70
2022-11-12T03:46:49.365Z,6.69
2022-11-12T03:49:15.458Z,6.47
2022-11-12T03:51:41.562Z,6.40
2022-11-12T03:54:07.677Z,6.43
2022-11-12T03:56:33.778Z,6.45
2022-11-12T03:58:59.866Z,6.48
2022-11-12T04:01:26.045Z,6.39
2022-11-12T04:03:52.213Z,6.35
2022-11-12T04:06:18.300Z,6.37
2022-11-12T04:08:44.419Z,6.40
2022-11-12T04:11:10.500Z,6.36
2022-11-12T04:13:36.583Z,6.42
2022-11-12T04:16:02.701Z,6.21
2022-11-12T04:18:28.970Z,6.34
2022-11-12T04:20:55.123Z,6.41
2022-11-12T04:23:21.227Z,6.27
2022-11-12T04:25:47.315Z,6.24
2022-11-12T04:28:13.425Z,6.23
2022-11-12T04:30:39.542Z,6.29
2022-11-12T04:33:05.683Z,6.09
2022-11-12T04:35:31.784Z,6.13
2022-11-12T04:37:57.945Z,6.07
2022-11-12T04:40:24.038Z,6.02
2022-11-12T04:42:50.137Z,6.16
2022-11-12T04:45:16.260Z,6.14
2022-11-12T04:47:42.358Z,6.15
2022-11-12T04:50:08.464Z,6.18
2022-11-12T04:52:34.576Z,6.08
2022-11-12T04:55:00.680Z,5.89
2022-11-12T04:57:26.774Z,5.82
2022-11-12T04:59:52.883Z,5.80
2022-11-12T05:02:18.967Z,5.81
2022-11-12T05:04:45.067Z,5.98
2022-11-12T05:07:11.790Z,5.98
2022-11-12T05:09:37.894Z,5.91
2022-11-12T05:12:03.996Z,5.89
2022-11-12T05:14:30.124Z,5.75
2022-11-12T05:16:56.214Z,5.70
2022-11-12T05:19:22.317Z,5.71
2022-11-12T05:21:48.436Z,5.54
2022-11-12T05:24:34.111Z,5.55
2022-11-12T05:27:00.633Z,5.52
2022-11-12T05:29:26.736Z,5.46
2022-11-12T05:31:52.836Z,5.65
2022-11-12T05:34:22.968Z,5.60
2022-11-12T05:36:49.278Z,5.58
2022-11-12T05:39:15.389Z,5.58
2022-11-12T05:42:10.835Z,5.46
2022-11-12T05:44:28.052Z,5.51
2022-11-12T05:46:54.159Z,5.46
2022-11-12T05:49:20.254Z,5.45
2022-11-12T05:51:46.344Z,5.46
2022-11-12T05:54:12.467Z,5.48
2022-11-12T05:56:38.556Z,5.39
2022-11-12T05:59:04.646Z,5.40
2022-11-12T06:01:30.769Z,5.44
2022-11-12T06:03:56.861Z,5.39
2022-11-12T06:06:22.958Z,5.34
2022-11-12T06:08:49.824Z,5.44
2022-11-12T06:11:15.919Z,5.36
2022-11-12T06:13:41.999Z,5.40
2022-11-12T06:16:08.115Z,5.53
2022-11-12T06:18:34.218Z,5.42
2022-11-12T06:21:00.308Z,5.30
2022-11-12T06:23:26.413Z,5.45
2022-11-12T06:25:52.501Z,5.52
2022-11-12T06:28:18.671Z,5.62
2022-11-12T06:30:44.832Z,5.45
2022-11-12T06:33:10.931Z,5.39
2022-11-12T06:35:41.711Z,5.42
2022-11-12T06:38:09.208Z,5.36
2022-11-12T06:40:35.343Z,5.47
2022-11-12T06:43:01.430Z,5.61
2022-11-12T06:45:27.552Z,5.56
2022-11-12T06:47:53.655Z,5.44
2022-11-12T06:50:19.750Z,5.46
2022-11-12T06:52:45.857Z,5.45
2022-11-12T06:55:11.946Z,5.35
2022-11-12T06:57:38.038Z,5.40
2022-11-12T07:00:04.151Z,5.44
2022-11-12T07:02:30.243Z,5.54
2022-11-12T07:04:56.328Z,5.52
2022-11-12T07:07:22.477Z,5.54
2022-11-12T07:09:48.609Z,5.66
2022-11-12T07:12:14.707Z,5.70
2022-11-12T07:14:40.815Z,5.85
2022-11-12T07:17:06.913Z,5.96
2022-11-12T07:19:33.014Z,5.89
2022-11-12T07:21:59.122Z,5.83
2022-11-12T07:24:25.218Z,5.85
2022-11-12T07:26:51.316Z,5.91
2022-11-12T07:29:29.954Z,5.93
2022-11-12T07:32:01.992Z,5.94
2022-11-12T07:34:28.122Z,5.94
2022-11-12T07:36:54.223Z,5.98
2022-11-12T07:39:20.317Z,5.96
2022-11-12T07:41:46.410Z,5.98
2022-11-12T07:44:12.520Z,5.97
2022-11-12T07:46:38.625Z,6.02
2022-11-12T07:49:05.083Z,6.00
2022-11-12T07:51:31.207Z,6.02
2022-11-12T07:53:59.493Z,6.00
2022-11-12T07:56:25.939Z,6.02
2022-11-12T07:58:52.025Z,6.11
2022-11-12T08:01:18.151Z,5.97
2022-11-12T08:03:44.405Z,5.88
2022-11-12T08:06:10.492Z,5.98
2022-11-12T08:08:36.606Z,6.08
2022-11-12T08:11:03.279Z,6.19
2022-11-12T08:13:29.389Z,6.21
2022-11-12T08:15:55.492Z,6.24
2022-11-12T08:18:21.608Z,6.19
2022-11-12T08:20:47.688Z,6.31
2022-11-12T08:23:13.790Z,6.35
2022-11-12T08:25:39.920Z,6.43
2022-11-12T08:28:06.027Z,6.55
2022-11-12T08:30:32.139Z,6.68
2022-11-12T08:32:58.257Z,6.80
2022-11-12T08:35:24.529Z,6.80
2022-11-12T08:37:50.610Z,6.83
2022-11-12T08:40:16.719Z,6.81
2022-11-12T08:42:42.803Z,6.83
2022-11-12T08:45:08.898Z,6.86
2022-11-12T08:47:35.017Z,6.91
2022-11-12T08:50:01.169Z,6.98
2022-11-12T08:52:27.269Z,7.01
2022-11-12T08:54:53.393Z,7.03
2022-11-12T08:57:19.485Z,7.08
2022-11-12T08:59:45.568Z,7.23
2022-11-12T09:02:11.677Z,7.38
2022-11-12T09:04:37.783Z,7.48
2022-11-12T09:07:05.210Z,7.60
2022-11-12T09:09:33.165Z,7.69
2022-11-12T09:11:59.271Z,7.79
2022-11-12T09:14:25.377Z,7.96
2022-11-12T09:16:51.479Z,7.98
2022-11-12T09:19:17.567Z,7.96
2022-11-12T09:21:43.659Z,7.95
2022-11-12T09:24:09.776Z,8.00
2022-11-12T09:26:35.871Z,8.10
2022-11-12T09:29:01.975Z,8.22
2022-11-12T09:31:28.095Z,8.28
2022-11-12T09:33:54.220Z,8.36
2022-11-12T09:36:20.320Z,8.45
2022-11-12T09:38:46.426Z,8.47
2022-11-12T09:41:12.534Z,8.55
2022-11-12T09:43:38.644Z,8.64
2022-11-12T09:46:26.529Z,8.76
2022-11-12T09:48:50.828Z,8.87
2022-11-12T09:51:16.944Z,8.96
2022-11-12T09:53:44.405Z,9.08
2022-11-12T09:56:10.765Z,9.14
2022-11-12T09:58:37.374Z,9.22
2022-11-12T10:01:03.494Z,9.31
2022-11-12T10:03:29.594Z,9.38
2022-11-12T10:05:55.703Z,9.48
2022-11-12T10:08:21.783Z,9.52
2022-11-12T10:10:47.867Z,9.63
2022-11-12T10:13:13.964Z,9.67
2022-11-12T10:15:40.145Z,9.77
2022-11-12T10:18:06.319Z,9.87
2022-11-12T10:20:38.435Z,9.95
2022-11-12T10:23:04.825Z,10.05
2022-11-12T10:25:30.920Z,10.14
2022-11-12T10:27:57.020Z,10.23
2022-11-12T10:30:23.120Z,10.33
2022-11-12T10:32:49.233Z,10.39
2022-11-12T10:35:15.341Z,10.48
2022-11-12T10:37:41.432Z,10.56
2022-11-12T10:40:07.533Z,10.68
2022-11-12T10:42:33.665Z,10.73
2022-11-12T10:44:59.760Z,10.82
2022-11-12T10:47:25.942Z,10.95
2022-11-12T10:49:52.053Z,11.04
2022-11-12T10:52:18.165Z,11.13
2022-11-12T10:54:44.283Z,11.23
2022-11-12T10:57:10.416Z,11.30
2022-11-12T10:59:36.672Z,11.38
2022-11-12T11:02:02.885Z,11.45
2022-11-12T11:04:29.552Z,11.50
2022-11-12T11:06:55.712Z,11.61
2022-11-12T11:09:21.821Z,11.66
2022-11-12T11:11:47.939Z,11.77
2022-11-12T11:14:14.045Z,11.90
2022-11-12T11:16:40.145Z,12.01
2022-11-12T11:19:06.261Z,12.11
2022-11-12T11:21:32.355Z,12.20
2022-11-12T11:23:59.438Z,12.26
2022-11-12T11:26:25.555Z,12.33
2022-11-12T11:28:51.649Z,12.40
2022-11-12T11:31:17.749Z,12.49
2022-11-12T11:33:43.861Z,12.57
2022-11-12T11:36:09.963Z,12.68
2022-11-12T11:38:36.071Z,12.76
2022-11-12T11:41:02.191Z,12.84
2022-11-12T11:43:28.303Z,12.90
2022-11-12T11:45:54.398Z,13.01
2022-11-12T11:48:20.527Z,13.07
2022-11-12T11:50:46.622Z,13.12
2022-11-12T11:53:12.711Z,13.19
2022-11-12T11:55:38.829Z,13.26
2022-11-12T11:58:04.921Z,13.29
2022-11-12T12:00:31.032Z,13.39
2022-11-12T12:02:57.143Z,13.46
2022-11-12T12:05:23.239Z,13.56
2022-11-12T12:07:49.335Z,13.57
2022-11-12T12:10:15.439Z,13.69
2022-11-12T12:12:41.519Z,13.74
2022-11-12T12:15:07.618Z,13.82
2022-11-12T12:17:33.727Z,13.86
2022-11-12T12:19:59.824Z,13.89
2022-11-12T12:22:25.916Z,13.97
2022-11-12T12:24:52.034Z,13.98
2022-11-12T12:27:18.126Z,14.01
2022-11-12T12:29:44.227Z,14.12
2022-11-12T12:32:10.341Z,14.28
2022-11-12T12:34:36.430Z,14.41
2022-11-12T12:37:02.634Z,14.56
2022-11-12T12:39:28.760Z,14.55
2022-11-12T12:41:54.842Z,14.64
2022-11-12T12:44:20.931Z,14.69
2022-11-12T12:46:47.043Z,14.70
2022-11-12T12:49:13.122Z,14.81
2022-11-12T12:51:39.216Z,14.89
2022-11-12T12:54:05.345Z,14.83
2022-11-12T12:56:31.452Z,14.91
2022-11-12T12:58:57.592Z,14.98
2022-11-12T13:01:23.766Z,15.02
2022-11-12T13:03:49.923Z,15.06
2022-11-12T13:06:16.015Z,15.14
2022-11-12T13:08:42.181Z,15.23
2022-11-12T13:11:08.279Z,15.25
2022-11-12T13:13:34.369Z,15.41
2022-11-12T13:16:00.472Z,15.33
2022-11-12T13:18:26.602Z,15.36
2022-11-12T13:20:52.774Z,15.48
2022-11-12T13:23:18.892Z,15.48
2022-11-12T13:25:44.981Z,15.49
2022-11-12T13:28:11.269Z,15.55
2022-11-12T13:30:37.397Z,15.60
2022-11-12T13:33:07.621Z,15.63
2022-11-12T13:35:36.705Z,15.63
2022-11-12T13:38:02.810Z,15.64
2022-11-12T13:40:28.927Z,15.59
2022-11-12T13:42:55.043Z,15.58
2022-11-12T13:45:21.139Z,15.55
2022-11-12T13:47:47.236Z,15.52
2022-11-12T13:50:13.337Z,15.51
2022-11-12T13:52:39.445Z,15.52
2022-11-12T13:55:05.536Z,15.54
2022-11-12T13:57:31.642Z,15.55
2022-11-12T13:59:57.760Z,15.58
2022-11-12T14:02:23.847Z,15.61
2022-11-12T14:04:51.436Z,15.63
2022-11-12T14:07:17.655Z,15.64
2022-11-12T14:09:43.800Z,15.68
2022-11-12T14:12:09.903Z,15.69
2022-11-12T14:14:36.504Z,15.71
2022-11-12T14:17:02.592Z,15.72
2022-11-12T14:19:28.685Z,15.74
2022-11-12T14:21:54.788Z,15.75
2022-11-12T14:24:20.886Z,15.72
2022-11-12T14:26:46.969Z,15.75
2022-11-12T14:29:13.101Z,15.75
2022-11-12T14:31:39.189Z,15.77
2022-11-12T14:34:05.274Z,15.75
2022-11-12T14:36:31.387Z,15.77
2022-11-12T14:38:57.497Z,15.73
2022-11-12T14:41:23.588Z,15.72
2022-11-12T14:43:52.225Z,15.69
2022-11-12T14:46:28.769Z,15.67
2022-11-12T14:48:54.879Z,15.63
2022-11-12T14:51:20.978Z,15.62
2022-11-12T14:53:47.075Z,15.61
2022-11-12T14:56:13.189Z,15.57
2022-11-12T14:58:39.280Z,15.51
2022-11-12T15:01:05.419Z,15.43
2022-11-12T15:03:31.558Z,15.43
2022-11-12T15:05:57.658Z,15.40
2022-11-12T15:08:23.752Z,15.36
2022-11-12T15:10:49.873Z,15.27
2022-11-12T15:13:15.967Z,15.27
2022-11-12T15:15:42.056Z,15.25
2022-11-12T15:18:08.172Z,15.21
2022-11-12T15:20:34.272Z,15.16
2022-11-12T15:23:00.375Z,15.17
2022-11-12T15:25:26.625Z,15.14
2022-11-12T15:27:52.814Z,15.12
2022-11-12T15:30:18.937Z,15.09
2022-11-12T15:32:45.063Z,15.00
2022-11-12T15:35:11.148Z,14.95
2022-11-12T15:37:37.253Z,14.87
2022-11-12T15:40:03.371Z,14.74
2022-11-12T15:42:29.478Z,14.71
2022-11-12T15:44:55.573Z,14.72
2022-11-12T15:47:21.700Z,14.70
2022-11-12T15:49:47.788Z,14.66
2022-11-12T15:52:13.890Z,14.60
2022-11-12T15:54:41.293Z,14.62
2022-11-12T15:57:07.508Z,14.62
2022-11-12T15:59:33.606Z,14.60
2022-11-12T16:01:59.721Z,14.61
2022-11-12T16:04:25.826Z,14.54
2022-11-12T16:06:51.956Z,14.49
2022-11-12T16:09:18.126Z,14.49
2022-11-12T16:11:44.228Z,14.45
2022-11-12T16:14:10.321Z,14.41
2022-11-12T16:16:36.777Z,14.31
2022-11-12T16:19:02.859Z,14.14
2022-11-12T16:21:28.940Z,14.18
2022-11-12T16:23:55.052Z,14.19
2022-11-12T16:26:21.149Z,14.11
2022-11-12T16:28:47.241Z,14.04
2022-11-12T16:31:13.353Z,13.88
2022-11-12T16:33:39.452Z,13.77
2022-11-12T16:36:05.559Z,13.66
2022-11-12T16:38:31.674Z,13.68
2022-11-12T16:40:57.771Z,13.68
2022-11-12T16:43:23.857Z,13.55
2022-11-12T16:45:49.981Z,13.55
2022-11-12T16:48:16.086Z,13.45
2022-11-12T16:50:42.202Z,13.29
2022-11-12T16:53:08.334Z,13.19
2022-11-12T16:55:34.437Z,13.22
2022-11-12T16:58:00.538Z,13.19
2022-11-12T17:00:26.645Z,13.13
2022-11-12T17:02:53.664Z,12.99
2022-11-12T17:05:19.855Z,12.95
2022-11-12T17:07:46.032Z,13.04
2022-11-12T17:10:12.133Z,13.01
2022-11-12T17:12:38.223Z,12.89
2022-11-12T17:15:04.341Z,12.76
2022-11-12T17:17:30.434Z,12.82
2022-11-12T17:19:56.647Z,12.83
2022-11-12T17:22:23.273Z,12.80
2022-11-12T17:24:49.372Z,12.91
2022-11-12T17:27:15.474Z,12.88
2022-11-12T17:29:41.584Z,12.85
2022-11-12T17:32:07.690Z,12.76
2022-11-12T17:34:33.785Z,12.56
2022-11-12T17:36:59.926Z,12.66
2022-11-12T17:39:26.038Z,12.67
2022-11-12T17:41:52.137Z,12.44
2022-11-12T17:44:18.252Z,12.50
2022-11-12T17:46:44.342Z,12.45
2022-11-12T17:49:10.428Z,12.30
2022-11-12T17:51:36.558Z,12.25
2022-11-12T17:54:02.661Z,12.25
2022-11-12T17:56:31.819Z,12.29
2022-11-12T17:59:01.945Z,12.27
2022-11-12T18:01:28.116Z,12.20
2022-11-12T18:03:54.260Z,12.22
2022-11-12T18:06:20.381Z,12.09
2022-11-12T18:08:46.495Z,12.07
2022-11-12T18:11:12.591Z,12.11
2022-11-12T18:13:38.701Z,12.05
2022-11-12T18:16:04.813Z,12.03
2022-11-12T18:18:30.918Z,12.05
2022-11-12T18:20:57.039Z,11.98
2022-11-12T18:23:23.140Z,11.96
2022-11-12T18:25:49.227Z,11.97
2022-11-12T18:28:15.339Z,11.96
2022-11-12T18:30:41.457Z,11.91
2022-11-12T18:33:07.584Z,11.81
2022-11-12T18:35:33.709Z,11.78
2022-11-12T18:37:59.811Z,11.73
2022-11-12T18:40:25.917Z,11.59
2022-11-12T18:42:52.041Z,11.56
2022-11-12T18:45:18.167Z,11.51
2022-11-12T18:47:44.275Z,11.62
2022-11-12T18:50:10.418Z,11.57
2022-11-12T18:52:36.520Z,11.57
2022-11-12T18:55:02.619Z,11.52
2022-11-12T18:57:28.749Z,11.43
2022-11-12T18:59:54.858Z,11.45
2022-11-12T19:02:20.969Z,11.32
2022-11-12T19:04:47.074Z,11.32
2022-11-12T19:07:13.213Z,11.25
2022-11-12T19:09:39.331Z,11.21
2022-11-12T19:12:05.442Z,11.23
2022-11-12T19:14:31.540Z,11.28
2022-11-12T19:16:57.638Z,11.25
2022-11-12T19:19:23.753Z,11.13
2022-11-12T19:21:49.871Z,11.11
2022-11-12T19:24:15.962Z,11.08
2022-11-12T19:26:42.360Z,10.99
2022-11-12T19:29:08.463Z,11.09
2022-11-12T19:31:34.571Z,11.13
2022-11-12T19:34:01.025Z,11.22
2022-11-12T19:36:27.145Z,11.10
2022-11-12T19:38:53.229Z,11.01
2022-11-12T19:41:20.212Z,11.08
2022-11-12T19:43:46.447Z,10.96
2022-11-12T19:46:12.552Z,11.08
2022-11-12T19:48:38.668Z,11.02
2022-11-12T19:51:04.830Z,10.93
2022-11-12T19:53:30.920Z,10.97
2022-11-12T19:55:57.024Z,10.82
2022-11-12T19:58:23.115Z,10.85
2022-11-12T20:00:49.244Z,10.85
2022-11-12T20:03:15.403Z,10.86
2022-11-12T20:05:41.492Z,10.76
2022-11-12T20:08:07.585Z,10.74
2022-11-12T20:10:33.755Z,10.76
2022-11-12T20:12:59.849Z,10.92
2022-11-12T20:15:25.979Z,10.97
2022-11-12T20:17:52.093Z,10.91
2022-11-12T20:20:18.261Z,10.65
2022-11-12T20:22:44.416Z,10.65
2022-11-12T20:25:10.541Z,10.50
2022-11-12T20:27:36.637Z,10.51
2022-11-12T20:30:02.737Z,10.47
2022-11-12T20:32:28.889Z,10.50
2022-11-12T20:34:54.989Z,10.73
2022-11-12T20:37:21.091Z,10.79
2022-11-12T20:39:47.206Z,10.85
2022-11-12T20:42:13.310Z,10.78
2022-11-12T20:44:39.423Z,10.82
2022-11-12T20:47:05.532Z,10.94
2022-11-12T20:49:31.634Z,10.96
2022-11-12T20:51:57.726Z,10.88
2022-11-12T20:54:23.844Z,10.73
2022-11-12T20:56:49.943Z,10.75
2022-11-12T20:59:16.040Z,10.94
2022-11-12T21:01:42.212Z,11.03
2022-11-12T21:04:08.341Z,11.01
2022-11-12T21:06:34.429Z,11.10
2022-11-12T21:09:00.560Z,11.03
2022-11-12T21:11:26.668Z,11.05
2022-11-12T21:13:52.763Z,11.02
2022-11-12T21:16:18.862Z,10.96
2022-11-12T21:18:44.950Z,10.74
2022-11-12T21:21:11.040Z,10.74
2022-11-12T21:23:37.150Z,10.78
2022-11-12T21:26:03.266Z,10.75
2022-11-12T21:28:29.696Z,10.85
2022-11-12T21:30:56.022Z,10.87
2022-11-12T21:33:22.149Z,10.81
2022-11-12T21:35:48.264Z,10.59
2022-11-12T21:38:15.145Z,10.62
2022-11-12T21:40:41.243Z,10.74
2022-11-12T21:43:07.341Z,10.72
2022-11-12T21:45:33.472Z,10.78
2022-11-12T21:47:59.567Z,10.77
2022-11-12T21:50:25.676Z,10.86
2022-11-12T21:52:51.781Z,10.83
2022-11-12T21:55:17.870Z,10.81
2022-11-12T21:57:43.969Z,10.86
2022-11-12T22:00:39.803Z,10.80
2022-11-12T22:02:56.191Z,10.78
2022-11-12T22:05:22.365Z,10.69
2022-11-12T22:07:48.546Z,10.63
2022-11-12T22:10:14.656Z,10.66
2022-11-12T22:12:42.945Z,10.69
2022-11-12T22:15:24.177Z,10.55
2022-11-12T22:17:50.655Z,10.48
2022-11-12T22:20:16.751Z,10.46
2022-11-12T22:22:42.864Z,10.44
2022-11-12T22:25:08.981Z,10.48
2022-11-12T22:27:35.071Z,10.41
2022-11-12T22:30:01.166Z,10.40
2022-11-12T22:32:27.276Z,10.44
2022-11-12T22:34:53.355Z,10.41
2022-11-12T22:37:19.444Z,10.53
2022-11-12T22:39:45.881Z,10.51
2022-11-12T22:42:11.977Z,10.35
2022-11-12T22:44:38.071Z,10.36
2022-11-12T22:47:04.188Z,10.30
2022-11-12T22:49:30.292Z,10.26
2022-11-12T22:51:56.374Z,10.34
2022-11-12T22:54:22.496Z,10.40
2022-11-12T22:56:48.583Z,10.40
2022-11-12T22:59:14.661Z,10.36
2022-11-12T23:01:40.876Z,10.48
2022-11-12T23:04:07.041Z,10.48
2022-11-12T23:06:33.137Z,10.54
2022-11-12T23:08:59.257Z,10.57
2022-11-12T23:11:25.355Z,10.59
2022-11-12T23:13:51.449Z,10.49
2022-11-12T23:16:17.561Z,10.49
2022-11-12T23:18:43.659Z,10.36
2022-11-12T23:21:09.755Z,10.30
2022-11-12T23:23:35.858Z,10.20
2022-11-12T23:26:01.945Z,10.11
2022-11-12T23:28:28.327Z,10.08
2022-11-12T23:30:54.758Z,9.96
2022-11-12T23:33:20.848Z,10.13
2022-11-12T23:35:46.927Z,10.16
2022-11-12T23:38:13.041Z,10.23
2022-11-12T23:40:39.123Z,10.24
2022-11-12T23:43:05.220Z,10.28
2022-11-12T23:45:31.329Z,10.25
2022-11-12T23:47:57.425Z,10.18
2022-11-12T23:50:23.508Z,10.24
2022-11-12T23:52:49.630Z,10.26
2022-11-12T23:55:15.729Z,10.21
2022-11-12T23:57:41.826Z,10.14
